createdAt,value
2022-12-07T00:00:26.735Z,0
2022-12-07T00:01:26.733Z,0
2022-12-07T00:02:26.756Z,0
2022-12-07T00:03:26.819Z,0
2022-12-07T00:04:26.730Z,0
2022-12-07T00:05:26.732Z,0
2022-12-07T00:06:26.760Z,0
2022-12-07T00:07:28.013Z,0
2022-12-07T00:08:26.778Z,0
2022-12-07T00:09:26.763Z,0
2022-12-07T00:10:26.731Z,0
2022-12-07T00:11:26.753Z,0
2022-12-07T00:12:26.734Z,0
2022-12-07T00:13:26.732Z,0
2022-12-07T00:14:26.725Z,0
2022-12-07T00:15:26.734Z,0
2022-12-07T00:16:26.773Z,0
2022-12-07T00:17:26.743Z,0
2022-12-07T00:18:26.726Z,0
2022-12-07T00:19:26.735Z,0
2022-12-07T00:20:26.732Z,0
2022-12-07T00:21:26.754Z,0
2022-12-07T00:22:26.742Z,0
2022-12-07T00:23:26.756Z,0
2022-12-07T00:24:26.747Z,0
2022-12-07T00:25:26.769Z,0
2022-12-07T00:26:26.746Z,0
2022-12-07T00:27:26.752Z,0
2022-12-07T00:28:26.739Z,0
2022-12-07T00:29:26.751Z,0
2022-12-07T00:30:26.755Z,0
2022-12-07T00:31:26.810Z,0
2022-12-07T00:32:26.764Z,0
2022-12-07T00:33:26.758Z,0
2022-12-07T00:34:26.763Z,0
2022-12-07T00:35:26.771Z,0
2022-12-07T00:36:27.515Z,0
2022-12-07T00:37:26.792Z,0
2022-12-07T00:38:26.771Z,0
2022-12-07T00:39:26.779Z,0
2022-12-07T00:40:26.776Z,0
2022-12-07T00:41:26.804Z,0
2022-12-07T00:42:26.777Z,0
2022-12-07T00:43:26.779Z,0
2022-12-07T00:44:26.787Z,0
2022-12-07T00:45:26.785Z,0
2022-12-07T00:46:26.800Z,0
2022-12-07T00:47:26.813Z,0
2022-12-07T00:48:26.795Z,0
2022-12-07T00:49:26.790Z,0
2022-12-07T00:50:26.802Z,0
2022-12-07T00:51:26.808Z,0
2022-12-07T00:52:26.834Z,0
2022-12-07T00:53:26.812Z,0
2022-12-07T00:54:26.805Z,0
2022-12-07T00:55:26.807Z,0
2022-12-07T00:56:26.827Z,0
2022-12-07T00:57:26.836Z,0
2022-12-07T00:58:26.813Z,0
2022-12-07T00:59:26.807Z,0
2022-12-07T01:00:26.812Z,0
2022-12-07T01:01:26.914Z,0
2022-12-07T01:02:26.830Z,0
2022-12-07T01:03:26.870Z,0
2022-12-07T01:04:26.828Z,0
2022-12-07T01:05:26.838Z,0
2022-12-07T01:06:26.846Z,0
2022-12-07T01:07:26.849Z,0
2022-12-07T01:08:26.833Z,0
2022-12-07T01:09:26.835Z,0
2022-12-07T01:10:26.830Z,0
2022-12-07T01:11:26.831Z,0
2022-12-07T01:12:26.836Z,0
2022-12-07T01:13:26.855Z,0
2022-12-07T01:14:26.838Z,0
2022-12-07T01:15:26.835Z,0
2022-12-07T01:16:26.963Z,0
2022-12-07T01:17:26.849Z,0
2022-12-07T01:18:26.848Z,0
2022-12-07T01:19:26.845Z,0
2022-12-07T01:20:26.841Z,0
2022-12-07T01:21:26.845Z,0
2022-12-07T01:22:26.860Z,0
2022-12-07T01:23:26.851Z,0
2022-12-07T01:24:26.849Z,0
2022-12-07T01:25:26.855Z,0
2022-12-07T01:26:26.859Z,0
2022-12-07T01:27:26.885Z,0
2022-12-07T01:28:26.854Z,0
2022-12-07T01:29:26.885Z,0
2022-12-07T01:30:26.957Z,0
2022-12-07T01:31:26.876Z,0
2022-12-07T01:32:26.869Z,0
2022-12-07T01:33:26.872Z,0
2022-12-07T01:34:26.874Z,0
2022-12-07T01:35:26.897Z,0
2022-12-07T01:36:26.870Z,0
2022-12-07T01:37:26.879Z,0
2022-12-07T01:38:26.901Z,0
2022-12-07T01:39:26.874Z,0
2022-12-07T01:40:26.884Z,0
2022-12-07T01:41:26.888Z,0
2022-12-07T01:42:26.877Z,0
2022-12-07T01:43:26.887Z,0
2022-12-07T01:44:26.881Z,0
2022-12-07T01:45:26.899Z,0
2022-12-07T01:46:26.935Z,0
2022-12-07T01:47:26.883Z,0
2022-12-07T01:48:26.882Z,0
2022-12-07T01:49:26.909Z,0
2022-12-07T01:50:26.895Z,0
2022-12-07T01:51:26.892Z,0
2022-12-07T01:52:26.952Z,0
2022-12-07T01:53:26.887Z,0
2022-12-07T01:54:26.928Z,0
2022-12-07T01:55:26.900Z,0
2022-12-07T01:56:26.895Z,0
2022-12-07T01:57:26.924Z,0
2022-12-07T01:58:26.904Z,0
2022-12-07T01:59:26.926Z,0
2022-12-07T02:00:26.908Z,0
2022-12-07T02:01:26.993Z,0
2022-12-07T02:02:26.957Z,0
2022-12-07T02:03:26.919Z,0
2022-12-07T02:04:26.911Z,0
2022-12-07T02:05:26.909Z,0
2022-12-07T02:06:26.915Z,0
2022-12-07T02:07:26.913Z,0
2022-12-07T02:08:26.939Z,0
2022-12-07T02:09:26.912Z,0
2022-12-07T02:10:26.919Z,0
2022-12-07T02:11:26.917Z,0
2022-12-07T02:12:26.924Z,0
2022-12-07T02:13:26.926Z,0
2022-12-07T02:14:26.921Z,0
2022-12-07T02:15:26.972Z,0
2022-12-07T02:16:26.946Z,0
2022-12-07T02:17:26.965Z,0
2022-12-07T02:18:26.933Z,0
2022-12-07T02:19:26.930Z,0
2022-12-07T02:20:26.926Z,0
2022-12-07T02:21:26.938Z,0
2022-12-07T02:22:26.931Z,0
2022-12-07T02:23:26.932Z,0
2022-12-07T02:24:26.935Z,0
2022-12-07T02:25:26.934Z,0
2022-12-07T02:26:26.935Z,0
2022-12-07T02:27:26.947Z,0
2022-12-07T02:28:26.956Z,0
2022-12-07T02:29:26.965Z,0
2022-12-07T02:30:26.956Z,0
2022-12-07T02:31:27.028Z,0
2022-12-07T02:32:26.948Z,0
2022-12-07T02:33:26.981Z,0
2022-12-07T02:34:26.951Z,0
2022-12-07T02:35:26.950Z,0
2022-12-07T02:36:26.952Z,0
2022-12-07T02:37:26.953Z,0
2022-12-07T02:38:26.955Z,0
2022-12-07T02:39:26.954Z,0
2022-12-07T02:40:26.953Z,0
2022-12-07T02:41:26.952Z,0
2022-12-07T02:42:26.957Z,0
2022-12-07T02:43:26.970Z,0
2022-12-07T02:44:26.968Z,0
2022-12-07T02:45:26.966Z,0
2022-12-07T02:46:27.017Z,0
2022-12-07T02:47:26.971Z,0
2022-12-07T02:48:26.973Z,0
2022-12-07T02:49:27.005Z,0
2022-12-07T02:50:26.973Z,0
2022-12-07T02:51:26.982Z,0
2022-12-07T02:52:26.979Z,0
2022-12-07T02:53:26.980Z,0
2022-12-07T02:54:26.972Z,0
2022-12-07T02:55:26.995Z,0
2022-12-07T02:56:26.980Z,0
2022-12-07T02:57:26.980Z,0
2022-12-07T02:58:26.994Z,0
2022-12-07T02:59:26.975Z,0
2022-12-07T03:00:26.992Z,0
2022-12-07T03:01:27.081Z,0
2022-12-07T03:02:27.025Z,0
2022-12-07T03:03:26.990Z,0
2022-12-07T03:04:26.992Z,0
2022-12-07T03:05:27.012Z,0
2022-12-07T03:06:26.989Z,0
2022-12-07T03:07:26.990Z,0
2022-12-07T03:08:27.081Z,0
2022-12-07T03:09:26.995Z,0
2022-12-07T03:10:26.996Z,0
2022-12-07T03:11:27.021Z,0
2022-12-07T03:12:27.000Z,0
2022-12-07T03:13:27.027Z,0
2022-12-07T03:14:26.993Z,0
2022-12-07T03:15:27.003Z,0
2022-12-07T03:16:27.035Z,0
2022-12-07T03:17:27.000Z,0
2022-12-07T03:18:27.004Z,0
2022-12-07T03:19:27.024Z,0
2022-12-07T03:20:27.012Z,0
2022-12-07T03:21:27.046Z,0
2022-12-07T03:22:27.006Z,0
2022-12-07T03:23:27.002Z,0
2022-12-07T03:24:27.016Z,0
2022-12-07T03:25:27.009Z,0
2022-12-07T03:26:27.010Z,0
2022-12-07T03:27:27.007Z,0
2022-12-07T03:28:27.008Z,0
2022-12-07T03:29:27.012Z,0
2022-12-07T03:30:27.014Z,0
2022-12-07T03:31:27.100Z,0
2022-12-07T03:32:27.029Z,0
2022-12-07T03:33:27.013Z,0
2022-12-07T03:34:27.017Z,0
2022-12-07T03:35:27.021Z,0
2022-12-07T03:36:27.037Z,0
2022-12-07T03:37:27.051Z,0
2022-12-07T03:38:27.026Z,0
2022-12-07T03:39:27.027Z,0
2022-12-07T03:40:27.027Z,0
2022-12-07T03:41:27.023Z,0
2022-12-07T03:42:27.040Z,0
2022-12-07T03:43:27.031Z,0
2022-12-07T03:44:27.028Z,0
2022-12-07T03:45:27.024Z,0
2022-12-07T03:46:27.051Z,0
2022-12-07T03:47:27.031Z,0
2022-12-07T03:48:27.043Z,0
2022-12-07T03:49:27.036Z,0
2022-12-07T03:50:27.035Z,0
2022-12-07T03:51:27.061Z,0
2022-12-07T03:52:27.031Z,0
2022-12-07T03:53:27.172Z,0
2022-12-07T03:54:27.044Z,0
2022-12-07T03:55:27.040Z,0
2022-12-07T03:56:27.049Z,0
2022-12-07T03:57:27.034Z,0
2022-12-07T03:58:27.035Z,0
2022-12-07T03:59:27.035Z,0
2022-12-07T04:00:27.036Z,0
2022-12-07T04:01:27.124Z,0
2022-12-07T04:02:27.074Z,0
2022-12-07T04:03:27.097Z,0
2022-12-07T04:04:27.046Z,0
2022-12-07T04:05:27.042Z,0
2022-12-07T04:06:27.039Z,0
2022-12-07T04:07:27.038Z,0
2022-12-07T04:08:27.050Z,0
2022-12-07T04:09:27.074Z,0
2022-12-07T04:10:27.046Z,0
2022-12-07T04:11:27.050Z,0
2022-12-07T04:12:27.049Z,0
2022-12-07T04:13:27.048Z,0
2022-12-07T04:14:27.043Z,0
2022-12-07T04:15:27.044Z,0
2022-12-07T04:16:27.120Z,0
2022-12-07T04:17:27.046Z,0
2022-12-07T04:18:27.050Z,0
2022-12-07T04:19:27.037Z,0
2022-12-07T04:20:27.048Z,0
2022-12-07T04:21:27.043Z,0
2022-12-07T04:22:27.050Z,0
2022-12-07T04:23:27.048Z,0
2022-12-07T04:24:27.051Z,0
2022-12-07T04:25:27.077Z,0
2022-12-07T04:26:27.051Z,0
2022-12-07T04:27:27.055Z,0
2022-12-07T04:28:27.051Z,0
2022-12-07T04:29:27.062Z,0
2022-12-07T04:30:27.059Z,0
2022-12-07T04:31:27.114Z,0
2022-12-07T04:32:27.063Z,0
2022-12-07T04:33:27.056Z,0
2022-12-07T04:34:27.055Z,0
2022-12-07T04:35:27.064Z,0
2022-12-07T04:36:27.059Z,0
2022-12-07T04:37:27.055Z,0
2022-12-07T04:38:27.062Z,0
2022-12-07T04:39:27.075Z,0
2022-12-07T04:40:27.075Z,0
2022-12-07T04:41:27.110Z,0
2022-12-07T04:42:27.082Z,0
2022-12-07T04:43:27.088Z,0
2022-12-07T04:44:27.079Z,0
2022-12-07T04:45:27.086Z,0
2022-12-07T04:46:27.140Z,0
2022-12-07T04:47:27.087Z,0
2022-12-07T04:48:27.109Z,0
2022-12-07T04:49:27.090Z,0
2022-12-07T04:50:27.093Z,0
2022-12-07T04:51:27.089Z,0
2022-12-07T04:52:27.091Z,0
2022-12-07T04:53:27.099Z,0
2022-12-07T04:54:27.105Z,0
2022-12-07T04:55:27.103Z,0
2022-12-07T04:56:27.123Z,0
2022-12-07T04:57:27.127Z,0
2022-12-07T04:58:27.110Z,0
2022-12-07T04:59:27.110Z,0
2022-12-07T05:00:27.146Z,0
2022-12-07T05:01:27.129Z,0
2022-12-07T05:02:27.265Z,0
2022-12-07T05:03:27.125Z,0
2022-12-07T05:04:27.117Z,0
2022-12-07T05:05:27.120Z,0
2022-12-07T05:06:27.242Z,0
2022-12-07T05:07:27.124Z,0
2022-12-07T05:08:27.133Z,0
2022-12-07T05:09:27.134Z,0
2022-12-07T05:10:27.133Z,0
2022-12-07T05:11:27.133Z,0
2022-12-07T05:12:27.139Z,0
2022-12-07T05:13:27.174Z,0
2022-12-07T05:14:27.170Z,0
2022-12-07T05:15:27.150Z,0
2022-12-07T05:16:27.217Z,0
2022-12-07T05:17:27.151Z,0
2022-12-07T05:18:27.158Z,0
2022-12-07T05:19:27.168Z,0
2022-12-07T05:20:27.164Z,0
2022-12-07T05:21:27.169Z,0
2022-12-07T05:22:27.163Z,0
2022-12-07T05:23:27.169Z,0
2022-12-07T05:24:27.171Z,0
2022-12-07T05:25:27.176Z,0
2022-12-07T05:26:27.175Z,0
2022-12-07T05:27:27.185Z,0
2022-12-07T05:28:27.177Z,0
2022-12-07T05:29:27.208Z,0
2022-12-07T05:30:27.183Z,0
2022-12-07T05:31:27.293Z,0
2022-12-07T05:32:27.181Z,0
2022-12-07T05:33:27.197Z,0
2022-12-07T05:34:27.190Z,0
2022-12-07T05:35:27.187Z,0
2022-12-07T05:36:27.186Z,0
2022-12-07T05:37:27.199Z,0
2022-12-07T05:38:27.202Z,0
2022-12-07T05:39:27.198Z,0
2022-12-07T05:40:27.197Z,0
2022-12-07T05:41:27.231Z,0
2022-12-07T05:42:27.204Z,0
2022-12-07T05:43:27.208Z,0
2022-12-07T05:44:27.211Z,0
2022-12-07T05:45:27.287Z,0
2022-12-07T05:46:27.236Z,0
2022-12-07T05:47:27.209Z,0
2022-12-07T05:48:27.240Z,0
2022-12-07T05:49:27.220Z,0
2022-12-07T05:50:27.221Z,0
2022-12-07T05:51:27.221Z,0
2022-12-07T05:52:27.225Z,0
2022-12-07T05:53:27.225Z,0
2022-12-07T05:54:27.229Z,0
2022-12-07T05:55:27.228Z,0
2022-12-07T05:56:27.235Z,0
2022-12-07T05:57:27.229Z,0
2022-12-07T05:58:27.244Z,0
2022-12-07T05:59:27.244Z,0
2022-12-07T06:00:27.248Z,0
2022-12-07T06:01:27.283Z,0
2022-12-07T06:02:27.385Z,0
2022-12-07T06:03:27.341Z,0
2022-12-07T06:04:27.261Z,0
2022-12-07T06:05:27.247Z,0
2022-12-07T06:06:27.310Z,0
2022-12-07T06:07:27.243Z,0
2022-12-07T06:08:27.323Z,0
2022-12-07T06:09:27.260Z,0
2022-12-07T06:10:27.257Z,0
2022-12-07T06:11:27.245Z,0
2022-12-07T06:12:27.257Z,0
2022-12-07T06:13:27.261Z,0
2022-12-07T06:14:27.276Z,0
2022-12-07T06:15:27.247Z,0
2022-12-07T06:16:27.287Z,0
2022-12-07T06:17:27.277Z,0
2022-12-07T06:18:27.271Z,0
2022-12-07T06:19:27.267Z,0
2022-12-07T06:20:27.259Z,0
2022-12-07T06:21:27.257Z,0
2022-12-07T06:22:27.258Z,0
2022-12-07T06:23:27.269Z,0
2022-12-07T06:24:27.276Z,0
2022-12-07T06:25:27.269Z,0
2022-12-07T06:26:27.262Z,0
2022-12-07T06:27:27.272Z,0
2022-12-07T06:28:27.307Z,0
2022-12-07T06:29:27.268Z,0
2022-12-07T06:30:27.270Z,0
2022-12-07T06:31:27.301Z,0
2022-12-07T06:32:27.271Z,0
2022-12-07T06:33:27.301Z,0
2022-12-07T06:34:27.280Z,0
2022-12-07T06:35:27.279Z,0
2022-12-07T06:36:27.487Z,0
2022-12-07T06:37:27.283Z,0
2022-12-07T06:38:27.280Z,0
2022-12-07T06:39:27.267Z,0
2022-12-07T06:40:27.297Z,0
2022-12-07T06:41:27.272Z,0
2022-12-07T06:42:27.277Z,0
2022-12-07T06:43:27.283Z,0
2022-12-07T06:44:27.275Z,0
2022-12-07T06:45:27.266Z,0
2022-12-07T06:46:27.355Z,0
2022-12-07T06:47:42.992Z,0
2022-12-07T06:48:27.272Z,0
2022-12-07T06:49:27.312Z,0
2022-12-07T06:50:27.266Z,0
2022-12-07T06:51:27.277Z,0
2022-12-07T06:52:27.274Z,0
2022-12-07T06:53:27.291Z,0
2022-12-07T06:54:27.275Z,0
2022-12-07T06:55:27.270Z,0
2022-12-07T06:56:27.277Z,0
2022-12-07T06:57:27.287Z,0
2022-12-07T06:58:27.290Z,0
2022-12-07T06:59:27.271Z,0
2022-12-07T07:00:27.271Z,0
2022-12-07T07:01:27.358Z,0
2022-12-07T07:02:27.339Z,0
2022-12-07T07:03:27.272Z,0
2022-12-07T07:04:27.274Z,0
2022-12-07T07:05:27.316Z,0
2022-12-07T07:06:27.275Z,0
2022-12-07T07:07:27.272Z,0
2022-12-07T07:08:27.371Z,0
2022-12-07T07:09:27.276Z,0
2022-12-07T07:10:27.290Z,0
2022-12-07T07:11:27.273Z,0
2022-12-07T07:12:27.279Z,0
2022-12-07T07:13:27.282Z,0
2022-12-07T07:14:27.280Z,0
2022-12-07T07:15:27.274Z,0
2022-12-07T07:16:27.486Z,0
2022-12-07T07:17:27.287Z,0
2022-12-07T07:18:27.290Z,0
2022-12-07T07:19:27.278Z,0
2022-12-07T07:20:27.284Z,0
2022-12-07T07:21:27.329Z,0
2022-12-07T07:22:27.273Z,0
2022-12-07T07:23:27.282Z,0
2022-12-07T07:24:27.290Z,0
2022-12-07T07:25:27.297Z,0
2022-12-07T07:26:27.288Z,0
2022-12-07T07:27:27.281Z,0
2022-12-07T07:28:27.293Z,0
2022-12-07T07:29:27.273Z,0
2022-12-07T07:30:27.329Z,0
2022-12-07T07:31:27.380Z,0
2022-12-07T07:32:27.284Z,0
2022-12-07T07:33:27.286Z,0
2022-12-07T07:34:27.283Z,0
2022-12-07T07:35:27.273Z,0
2022-12-07T07:36:27.291Z,0
2022-12-07T07:37:27.300Z,0
2022-12-07T07:38:27.283Z,0
2022-12-07T07:39:27.289Z,0
2022-12-07T07:40:27.301Z,0
2022-12-07T07:41:27.277Z,0
2022-12-07T07:42:27.278Z,0
2022-12-07T07:43:27.284Z,0
2022-12-07T07:44:31.711Z,0
2022-12-07T07:45:27.283Z,0
2022-12-07T07:46:27.330Z,0
2022-12-07T07:47:27.288Z,0
2022-12-07T07:48:27.278Z,0
2022-12-07T07:49:27.282Z,0
2022-12-07T07:50:27.383Z,0
2022-12-07T07:51:27.310Z,0
2022-12-07T07:52:27.292Z,0
2022-12-07T07:53:27.298Z,0
2022-12-07T07:54:27.283Z,0
2022-12-07T07:55:27.285Z,0
2022-12-07T07:56:27.296Z,0
2022-12-07T07:57:27.279Z,0
2022-12-07T07:58:27.299Z,1.5
2022-12-07T07:59:27.291Z,0
2022-12-07T08:00:27.307Z,0
2022-12-07T08:01:27.361Z,0
2022-12-07T08:02:27.281Z,0
2022-12-07T08:03:27.287Z,0
2022-12-07T08:04:27.366Z,0
2022-12-07T08:05:27.285Z,0
2022-12-07T08:06:31.933Z,0
2022-12-07T08:07:27.276Z,0
2022-12-07T08:08:27.379Z,0
2022-12-07T08:09:27.307Z,0
2022-12-07T08:10:27.351Z,0
2022-12-07T08:11:27.288Z,0
2022-12-07T08:12:27.287Z,0
2022-12-07T08:13:30.897Z,0
2022-12-07T08:14:27.294Z,0
2022-12-07T08:15:27.276Z,0
2022-12-07T08:16:27.391Z,0
2022-12-07T08:17:27.288Z,0
2022-12-07T08:18:27.283Z,0
2022-12-07T08:19:27.290Z,0
2022-12-07T08:20:27.380Z,0
2022-12-07T08:21:27.282Z,0
2022-12-07T08:22:27.292Z,0
2022-12-07T08:23:32.621Z,0
2022-12-07T08:24:27.283Z,0
2022-12-07T08:25:27.304Z,0
2022-12-07T08:26:27.343Z,0
2022-12-07T08:27:27.283Z,0
2022-12-07T08:28:27.296Z,0
2022-12-07T08:29:27.300Z,0.9
2022-12-07T08:30:27.288Z,2
2022-12-07T08:31:27.350Z,0
2022-12-07T08:32:27.287Z,0
2022-12-07T08:33:27.285Z,0
2022-12-07T08:34:27.306Z,0
2022-12-07T08:35:27.287Z,0
2022-12-07T08:36:27.311Z,0
2022-12-07T08:37:27.289Z,0
2022-12-07T08:38:31.478Z,0
2022-12-07T08:39:31.980Z,0
2022-12-07T08:40:27.401Z,0
2022-12-07T08:41:27.305Z,0
2022-12-07T08:42:27.289Z,0
2022-12-07T08:43:27.289Z,0
2022-12-07T08:44:27.293Z,0
2022-12-07T08:45:27.862Z,0
2022-12-07T08:46:27.422Z,0
2022-12-07T08:47:27.288Z,0
2022-12-07T08:48:27.289Z,0
2022-12-07T08:49:27.286Z,0
2022-12-07T08:50:27.300Z,0
2022-12-07T08:51:27.292Z,0
2022-12-07T08:52:27.289Z,0
2022-12-07T08:53:27.291Z,0
2022-12-07T08:54:27.279Z,0
2022-12-07T08:55:27.298Z,0
2022-12-07T08:56:27.284Z,0
2022-12-07T08:57:27.309Z,0
2022-12-07T08:58:27.299Z,0
2022-12-07T08:59:27.289Z,0
2022-12-07T09:00:27.299Z,0
2022-12-07T09:01:27.300Z,0
2022-12-07T09:02:27.285Z,0
2022-12-07T09:03:27.288Z,0
2022-12-07T09:04:27.297Z,0
2022-12-07T09:05:27.443Z,0
2022-12-07T09:06:27.342Z,0
2022-12-07T09:07:27.287Z,0
2022-12-07T09:08:27.334Z,0
2022-12-07T09:09:27.294Z,0
2022-12-07T09:10:27.288Z,0
2022-12-07T09:11:28.943Z,0
2022-12-07T09:12:27.298Z,0
2022-12-07T09:13:27.319Z,0
2022-12-07T09:14:27.292Z,0
2022-12-07T09:15:27.288Z,0
2022-12-07T09:16:27.369Z,0
2022-12-07T09:17:27.304Z,0
2022-12-07T09:18:27.292Z,0
2022-12-07T09:19:27.292Z,0
2022-12-07T09:20:28.179Z,0
2022-12-07T09:21:27.299Z,0
2022-12-07T09:22:27.301Z,0
2022-12-07T09:23:27.297Z,0
2022-12-07T09:24:27.290Z,0
2022-12-07T09:25:27.305Z,0
2022-12-07T09:26:27.300Z,0
2022-12-07T09:27:27.392Z,0
2022-12-07T09:28:27.289Z,0
2022-12-07T09:29:27.320Z,0
2022-12-07T09:30:27.302Z,0
2022-12-07T09:31:27.509Z,0
2022-12-07T09:32:27.358Z,0
2022-12-07T09:33:27.296Z,0
2022-12-07T09:34:27.383Z,0
2022-12-07T09:35:27.288Z,0
2022-12-07T09:36:27.351Z,0
2022-12-07T09:37:27.304Z,0
2022-12-07T09:38:27.295Z,0
2022-12-07T09:39:27.305Z,0
2022-12-07T09:40:27.290Z,0
2022-12-07T09:41:27.289Z,0
2022-12-07T09:42:27.364Z,0
2022-12-07T09:43:27.288Z,0
2022-12-07T09:44:27.306Z,0
2022-12-07T09:45:27.329Z,0
2022-12-07T09:46:27.393Z,0
2022-12-07T09:47:27.293Z,0
2022-12-07T09:48:27.295Z,0
2022-12-07T09:49:27.295Z,0
2022-12-07T09:50:27.298Z,0
2022-12-07T09:51:27.297Z,0
2022-12-07T09:52:27.289Z,0
2022-12-07T09:53:27.291Z,0
2022-12-07T09:54:27.314Z,0
2022-12-07T09:55:27.299Z,0
2022-12-07T09:56:27.316Z,0
2022-12-07T09:57:27.300Z,0
2022-12-07T09:58:27.298Z,0
2022-12-07T09:59:28.607Z,0
2022-12-07T10:00:27.298Z,0
2022-12-07T10:01:27.403Z,0
2022-12-07T10:02:27.306Z,0
2022-12-07T10:03:27.299Z,0
2022-12-07T10:04:27.334Z,0
2022-12-07T10:05:27.351Z,0
2022-12-07T10:06:27.299Z,0
2022-12-07T10:07:27.294Z,0
2022-12-07T10:08:27.375Z,0
2022-12-07T10:09:27.301Z,0
2022-12-07T10:10:27.308Z,0
2022-12-07T10:11:27.303Z,0
2022-12-07T10:12:27.297Z,0
2022-12-07T10:14:38.212Z,0
2022-12-07T10:15:25.604Z,0
2022-12-07T10:16:25.665Z,0
2022-12-07T10:17:25.540Z,0
2022-12-07T10:18:25.516Z,0
2022-12-07T10:19:25.521Z,0
2022-12-07T10:20:25.540Z,0
2022-12-07T10:21:25.538Z,0
2022-12-07T10:22:30.418Z,0
2022-12-07T10:23:25.526Z,0
2022-12-07T10:24:25.531Z,0
2022-12-07T10:25:25.527Z,0
2022-12-07T10:26:25.532Z,0
2022-12-07T10:27:25.533Z,0
2022-12-07T10:28:25.535Z,0
2022-12-07T10:29:25.542Z,0
2022-12-07T10:30:25.544Z,0
2022-12-07T10:31:25.633Z,0
2022-12-07T10:32:25.541Z,0
2022-12-07T10:33:25.565Z,0
2022-12-07T10:34:25.552Z,0
2022-12-07T10:35:25.561Z,0
2022-12-07T10:36:25.549Z,0
2022-12-07T10:37:25.544Z,0
2022-12-07T10:38:25.556Z,0
2022-12-07T10:39:25.552Z,0
2022-12-07T10:40:25.561Z,0
2022-12-07T10:41:25.552Z,0
2022-12-07T10:42:25.561Z,0
2022-12-07T10:43:25.557Z,0
2022-12-07T10:44:25.550Z,0
2022-12-07T10:45:25.595Z,0
2022-12-07T10:46:25.631Z,0
2022-12-07T10:47:25.672Z,0
2022-12-07T10:48:25.558Z,0
2022-12-07T10:49:25.585Z,0
2022-12-07T10:50:25.558Z,0
2022-12-07T10:51:25.559Z,0
2022-12-07T10:52:25.568Z,0
2022-12-07T10:53:25.553Z,0
2022-12-07T10:54:25.575Z,0
2022-12-07T10:55:25.570Z,0
2022-12-07T10:56:25.583Z,0
2022-12-07T10:57:25.575Z,0
2022-12-07T10:58:25.585Z,0
2022-12-07T10:59:25.578Z,0
2022-12-07T11:00:25.577Z,0
2022-12-07T11:01:25.638Z,0
2022-12-07T11:02:25.611Z,0
2022-12-07T11:03:25.583Z,0
2022-12-07T11:04:25.582Z,0
2022-12-07T11:05:25.607Z,0
2022-12-07T11:06:25.586Z,0
2022-12-07T11:07:25.588Z,0
2022-12-07T11:08:25.683Z,0
2022-12-07T11:09:38.915Z,0
2022-12-07T11:10:25.870Z,0
2022-12-07T11:11:25.588Z,0
2022-12-07T11:12:25.588Z,0
2022-12-07T11:13:28.587Z,0
2022-12-07T11:14:25.593Z,0
2022-12-07T11:15:25.593Z,0
2022-12-07T11:16:25.659Z,0
2022-12-07T11:17:25.595Z,0
2022-12-07T11:18:25.600Z,0
2022-12-07T11:19:28.339Z,0
2022-12-07T11:20:25.596Z,0
2022-12-07T11:21:25.641Z,0
2022-12-07T11:22:25.603Z,0
2022-12-07T11:23:25.598Z,0
2022-12-07T11:24:25.613Z,0
2022-12-07T11:25:28.725Z,0
2022-12-07T11:26:25.614Z,0
2022-12-07T11:27:25.614Z,0
2022-12-07T11:28:25.615Z,0
2022-12-07T11:29:25.612Z,0
2022-12-07T11:30:25.609Z,0
2022-12-07T11:31:29.159Z,0
2022-12-07T11:32:25.614Z,0
2022-12-07T11:33:25.616Z,0
2022-12-07T11:34:25.620Z,0
2022-12-07T11:35:25.620Z,0
2022-12-07T11:36:25.631Z,0
2022-12-07T11:37:25.644Z,0
2022-12-07T11:38:26.429Z,0
2022-12-07T11:39:25.619Z,0
2022-12-07T11:40:25.628Z,0
2022-12-07T11:41:25.619Z,0
2022-12-07T11:42:25.619Z,0
2022-12-07T11:43:25.619Z,0
2022-12-07T11:44:27.458Z,0
2022-12-07T11:45:25.636Z,0
2022-12-07T11:46:25.656Z,0
2022-12-07T11:47:25.626Z,0
2022-12-07T11:48:25.636Z,0
2022-12-07T11:49:25.639Z,0
2022-12-07T11:50:25.837Z,0
2022-12-07T11:51:29.069Z,0
2022-12-07T11:52:25.633Z,0
2022-12-07T11:53:25.657Z,0
2022-12-07T11:54:25.632Z,0
2022-12-07T11:55:25.637Z,0
2022-12-07T11:56:25.649Z,0
2022-12-07T11:57:25.641Z,0
2022-12-07T11:58:25.635Z,0
2022-12-07T11:59:25.643Z,0
2022-12-07T12:00:25.655Z,0
2022-12-07T12:01:25.645Z,0
2022-12-07T12:02:25.724Z,0
2022-12-07T12:03:25.713Z,0
2022-12-07T12:04:25.652Z,0
2022-12-07T12:05:25.652Z,0
2022-12-07T12:06:25.648Z,0
2022-12-07T12:09:41.376Z,0
2022-12-07T12:10:25.649Z,0
2022-12-07T12:11:25.644Z,0
2022-12-07T12:14:33.143Z,0
2022-12-07T12:15:25.655Z,0
2022-12-07T12:16:25.669Z,0
2022-12-07T12:17:25.650Z,2
2022-12-07T12:18:25.654Z,0
2022-12-07T12:19:25.658Z,0
2022-12-07T12:20:25.654Z,3.6
2022-12-07T12:21:25.650Z,2.4000000000000004
2022-12-07T12:22:25.659Z,2
2022-12-07T12:23:25.664Z,2.7
2022-12-07T12:24:25.659Z,1.7000000000000002
2022-12-07T12:25:25.689Z,1.7000000000000002
2022-12-07T12:26:25.701Z,1.1
2022-12-07T12:27:25.713Z,0
2022-12-07T12:28:25.661Z,0
2022-12-07T12:29:25.663Z,4.5
2022-12-07T12:30:25.672Z,2
2022-12-07T12:31:25.719Z,0
2022-12-07T12:32:25.717Z,0
2022-12-07T12:33:25.671Z,0
2022-12-07T12:34:25.668Z,0
2022-12-07T12:35:25.678Z,0
2022-12-07T12:36:25.789Z,0
2022-12-07T12:37:25.733Z,0
2022-12-07T12:38:25.666Z,0
2022-12-07T12:39:25.683Z,0
2022-12-07T12:40:25.681Z,0
2022-12-07T12:41:25.704Z,0
2022-12-07T12:42:25.684Z,0
2022-12-07T12:43:25.676Z,0
2022-12-07T12:44:25.693Z,0
2022-12-07T12:45:25.695Z,0
2022-12-07T12:46:25.742Z,0
2022-12-07T12:47:25.678Z,0
2022-12-07T12:48:25.678Z,0
2022-12-07T12:49:25.696Z,0
2022-12-07T12:50:25.696Z,0
2022-12-07T12:51:25.694Z,0
2022-12-07T12:52:25.695Z,0
2022-12-07T12:53:25.692Z,0
2022-12-07T12:54:25.694Z,0
2022-12-07T12:55:25.692Z,0
2022-12-07T12:56:25.692Z,0
2022-12-07T12:57:25.717Z,0
2022-12-07T12:58:25.689Z,0
2022-12-07T12:59:25.698Z,0
2022-12-07T13:00:25.708Z,0
2022-12-07T13:01:25.730Z,0
2022-12-07T13:02:25.771Z,0
2022-12-07T13:03:25.707Z,0
2022-12-07T13:04:25.699Z,0
2022-12-07T13:05:25.696Z,0
2022-12-07T13:06:25.706Z,0
2022-12-07T13:07:25.713Z,0
2022-12-07T13:08:29.304Z,0
2022-12-07T13:09:25.703Z,0
2022-12-07T13:10:25.710Z,0
2022-12-07T13:11:25.710Z,0
2022-12-07T13:12:25.712Z,0
2022-12-07T13:13:25.733Z,0
2022-12-07T13:14:28.479Z,5.300000000000001
2022-12-07T13:15:25.716Z,3
2022-12-07T13:16:25.737Z,6.9
2022-12-07T13:17:25.711Z,4.800000000000001
2022-12-07T13:18:25.724Z,4.7
2022-12-07T13:19:25.708Z,4.800000000000001
2022-12-07T13:20:25.715Z,8.5
2022-12-07T13:21:25.719Z,6
2022-12-07T13:22:25.718Z,4.6000000000000005
2022-12-07T13:23:25.733Z,2.7
2022-12-07T13:24:25.728Z,4.5
2022-12-07T13:25:25.727Z,4.2
2022-12-07T13:26:25.723Z,2
2022-12-07T13:27:25.722Z,4.4
2022-12-07T13:28:25.730Z,5.300000000000001
2022-12-07T13:29:25.755Z,7.4
2022-12-07T13:30:25.795Z,2.4000000000000004
2022-12-07T13:31:25.776Z,5.2
2022-12-07T13:32:25.759Z,1.8
2022-12-07T13:33:25.729Z,4.800000000000001
2022-12-07T13:34:25.741Z,2.9000000000000004
2022-12-07T13:35:25.739Z,5.6000000000000005
2022-12-07T13:36:25.752Z,8.1
2022-12-07T13:37:25.730Z,5
2022-12-07T13:38:25.742Z,4.7
2022-12-07T13:39:25.740Z,3.8000000000000003
2022-12-07T13:40:25.752Z,0
2022-12-07T13:41:25.746Z,6.6000000000000005
2022-12-07T13:42:25.733Z,4.3
2022-12-07T13:43:25.742Z,5.800000000000001
2022-12-07T13:44:25.750Z,2.9000000000000004
2022-12-07T13:45:25.769Z,4.4
2022-12-07T13:46:25.783Z,5.7
2022-12-07T13:47:25.756Z,5.800000000000001
2022-12-07T13:48:25.753Z,2.7
2022-12-07T13:49:25.752Z,5.7
2022-12-07T13:50:25.741Z,6.5
2022-12-07T13:51:25.749Z,1.8
2022-12-07T13:52:25.757Z,4.1000000000000005
2022-12-07T13:53:25.754Z,0.5
2022-12-07T13:54:25.753Z,6
2022-12-07T13:55:25.745Z,5.1000000000000005
2022-12-07T13:56:25.756Z,3.9000000000000004
2022-12-07T13:57:25.764Z,5.1000000000000005
2022-12-07T13:58:25.755Z,5.4
2022-12-07T13:59:25.766Z,4.6000000000000005
2022-12-07T14:00:25.769Z,9.1
2022-12-07T14:01:25.898Z,3
2022-12-07T14:02:28.295Z,6.1000000000000005
2022-12-07T14:03:25.788Z,4.9
2022-12-07T14:04:25.761Z,5.1000000000000005
2022-12-07T14:05:25.760Z,3.4000000000000004
2022-12-07T14:06:25.772Z,4.6000000000000005
2022-12-07T14:07:25.758Z,6.7
2022-12-07T14:08:25.856Z,4.9
2022-12-07T14:09:25.758Z,2.8000000000000003
2022-12-07T14:10:25.750Z,3.8000000000000003
2022-12-07T14:11:25.756Z,8.4
2022-12-07T14:12:25.772Z,7.800000000000001
2022-12-07T14:13:25.768Z,5.2
2022-12-07T14:14:25.767Z,7
2022-12-07T14:15:25.760Z,7.5
2022-12-07T14:16:25.822Z,6.300000000000001
2022-12-07T14:17:25.788Z,6
2022-12-07T14:18:25.763Z,4.1000000000000005
2022-12-07T14:19:25.759Z,7.1000000000000005
2022-12-07T14:20:25.761Z,9.1
2022-12-07T14:21:25.772Z,7.6000000000000005
2022-12-07T14:22:25.775Z,4.5
2022-12-07T14:23:25.786Z,6.7
2022-12-07T14:24:25.762Z,6.7
2022-12-07T14:25:25.777Z,5.800000000000001
2022-12-07T14:26:25.762Z,4.800000000000001
2022-12-07T14:27:25.772Z,4.9